createdAt,value
2018-12-14T00:00:43.884Z,0.00
2018-12-14T00:01:43.865Z,0.00
2018-12-14T00:02:43.850Z,0.00
2018-12-14T00:03:43.834Z,0.00
2018-12-14T00:04:43.819Z,0.00
2018-12-14T00:05:43.803Z,0.00
2018-12-14T00:06:43.790Z,0.00
2018-12-14T00:07:43.773Z,0.00
2018-12-14T00:08:43.756Z,0.00
2018-12-14T00:09:43.743Z,0.00
2018-12-14T00:10:43.727Z,0.00
2018-12-14T00:11:45.700Z,0.00
2018-12-14T00:12:43.696Z,0.00
2018-12-14T00:13:43.682Z,0.00
2018-12-14T00:14:43.667Z,0.00
2018-12-14T00:15:43.652Z,0.00
2018-12-14T00:16:43.636Z,0.00
2018-12-14T00:17:43.621Z,0.00
2018-12-14T00:18:43.605Z,0.00
2018-12-14T00:19:43.588Z,0.00
2018-12-14T00:20:43.577Z,0.00
2018-12-14T00:21:43.564Z,0.00
2018-12-14T00:22:43.543Z,0.00
2018-12-14T00:23:43.528Z,0.00
2018-12-14T00:24:43.520Z,0.00
2018-12-14T00:25:43.498Z,0.00
2018-12-14T00:26:43.484Z,0.00
2018-12-14T00:27:43.465Z,0.00
2018-12-14T00:28:43.451Z,0.00
2018-12-14T00:29:43.436Z,0.00
2018-12-14T00:30:43.422Z,0.00
2018-12-14T00:31:43.404Z,0.00
2018-12-14T00:32:43.391Z,0.00
2018-12-14T00:33:43.375Z,0.00
2018-12-14T00:34:43.361Z,0.00
2018-12-14T00:35:43.346Z,0.00
2018-12-14T00:36:43.328Z,0.00
2018-12-14T00:37:43.313Z,0.00
2018-12-14T00:38:43.300Z,0.00
2018-12-14T00:39:43.281Z,0.00
2018-12-14T00:40:43.267Z,0.00
2018-12-14T00:41:43.251Z,0.00
2018-12-14T00:42:43.239Z,0.00
2018-12-14T00:43:43.219Z,0.00
2018-12-14T00:44:43.455Z,0.00
2018-12-14T00:45:43.189Z,0.00
2018-12-14T00:46:43.178Z,0.00
2018-12-14T00:47:43.158Z,0.00
2018-12-14T00:48:43.145Z,0.00
2018-12-14T00:49:43.129Z,0.00
2018-12-14T00:50:43.115Z,0.00
2018-12-14T00:51:43.099Z,0.00
2018-12-14T00:52:43.084Z,0.00
2018-12-14T00:53:43.068Z,0.00
2018-12-14T00:54:43.054Z,0.00
2018-12-14T00:55:43.037Z,0.00
2018-12-14T00:56:43.023Z,0.00
2018-12-14T00:57:43.012Z,0.00
2018-12-14T00:58:42.993Z,0.00
2018-12-14T00:59:42.978Z,0.00
2018-12-14T01:00:42.963Z,0.00
2018-12-14T01:01:42.947Z,0.00
2018-12-14T01:02:42.935Z,0.00
2018-12-14T01:03:42.925Z,0.00
2018-12-14T01:04:42.904Z,0.00
2018-12-14T01:05:42.888Z,0.00
2018-12-14T01:06:42.873Z,0.00
2018-12-14T01:07:42.857Z,0.00
2018-12-14T01:08:42.842Z,0.00
2018-12-14T01:09:42.829Z,0.00
2018-12-14T01:10:42.812Z,0.00
2018-12-14T01:11:42.797Z,0.00
2018-12-14T01:12:42.783Z,0.00
2018-12-14T01:13:42.767Z,0.00
2018-12-14T01:14:42.754Z,0.00
2018-12-14T01:15:42.736Z,0.00
2018-12-14T01:16:42.723Z,0.00
2018-12-14T01:17:42.716Z,0.00
2018-12-14T01:18:42.692Z,0.00
2018-12-14T01:19:42.679Z,0.00
2018-12-14T01:20:42.665Z,0.00
2018-12-14T01:21:42.646Z,0.00
2018-12-14T01:22:42.632Z,0.00
2018-12-14T01:23:42.622Z,0.00
2018-12-14T01:24:42.608Z,0.00
2018-12-14T01:25:42.585Z,0.00
2018-12-14T01:26:42.572Z,0.00
2018-12-14T01:27:42.554Z,0.00
2018-12-14T01:28:42.539Z,0.00
2018-12-14T01:29:42.524Z,0.00
2018-12-14T01:30:42.510Z,0.00
2018-12-14T01:31:42.493Z,0.00
2018-12-14T01:32:42.479Z,0.00
2018-12-14T01:33:42.465Z,0.00
2018-12-14T01:34:42.451Z,0.00
2018-12-14T01:35:42.432Z,0.00
2018-12-14T01:36:42.417Z,0.00
2018-12-14T01:37:42.403Z,0.00
2018-12-14T01:38:42.395Z,0.00
2018-12-14T01:39:42.372Z,0.00
2018-12-14T01:40:42.358Z,0.00
2018-12-14T01:41:42.341Z,0.00
2018-12-14T01:42:42.328Z,0.00
2018-12-14T01:43:42.311Z,0.00
2018-12-14T01:44:42.296Z,0.00
2018-12-14T01:45:42.281Z,0.00
2018-12-14T01:46:42.269Z,0.00
2018-12-14T01:47:42.251Z,0.00
2018-12-14T01:48:42.236Z,0.00
2018-12-14T01:49:42.223Z,0.00
2018-12-14T01:50:42.206Z,0.00
2018-12-14T01:51:42.189Z,0.00
2018-12-14T01:52:42.174Z,0.00
2018-12-14T01:53:42.159Z,0.00
2018-12-14T01:54:42.145Z,0.00
2018-12-14T01:55:42.128Z,0.00
2018-12-14T01:56:42.114Z,0.00
2018-12-14T01:57:42.098Z,0.00
2018-12-14T01:58:42.090Z,0.00
2018-12-14T01:59:42.068Z,0.00
2018-12-14T02:00:42.053Z,0.00
2018-12-14T02:01:42.037Z,0.00
2018-12-14T02:02:42.023Z,0.00
2018-12-14T02:03:42.006Z,0.00
2018-12-14T02:04:41.993Z,0.00
2018-12-14T02:05:41.979Z,0.00
2018-12-14T02:06:41.962Z,0.00
2018-12-14T02:07:41.944Z,0.00
2018-12-14T02:08:41.929Z,0.00
2018-12-14T02:09:41.915Z,0.00
2018-12-14T02:10:41.900Z,0.00
2018-12-14T02:11:41.882Z,0.00
2018-12-14T02:12:41.868Z,0.00
2018-12-14T02:13:41.852Z,0.00
2018-12-14T02:14:41.838Z,0.00
2018-12-14T02:15:41.822Z,0.00
2018-12-14T02:16:41.806Z,0.00
2018-12-14T02:17:41.791Z,0.00
2018-12-14T02:18:41.776Z,0.00
2018-12-14T02:19:41.760Z,0.00
2018-12-14T02:20:41.748Z,0.00
2018-12-14T02:21:41.734Z,0.00
2018-12-14T02:22:41.714Z,0.00
2018-12-14T02:23:41.699Z,0.00
2018-12-14T02:24:41.684Z,0.00
2018-12-14T02:25:41.669Z,0.00
2018-12-14T02:26:41.653Z,0.00
2018-12-14T02:27:41.636Z,0.00
2018-12-14T02:28:41.621Z,0.00
2018-12-14T02:29:41.607Z,0.00
2018-12-14T02:30:41.591Z,0.00
2018-12-14T02:31:41.576Z,0.00
2018-12-14T02:32:41.560Z,0.00
2018-12-14T02:33:41.551Z,0.00
2018-12-14T02:34:41.530Z,0.00
2018-12-14T02:35:41.514Z,0.00
2018-12-14T02:36:41.502Z,0.00
2018-12-14T02:37:41.487Z,0.00
2018-12-14T02:38:41.468Z,0.00
2018-12-14T02:39:41.453Z,0.00
2018-12-14T02:40:41.644Z,0.00
2018-12-14T02:41:41.425Z,0.00
2018-12-14T02:42:41.413Z,0.00
2018-12-14T02:43:41.397Z,0.00
2018-12-14T02:44:41.377Z,0.00
2018-12-14T02:45:41.363Z,0.00
2018-12-14T02:46:41.347Z,0.00
2018-12-14T02:47:41.334Z,0.00
2018-12-14T02:48:41.519Z,0.00
2018-12-14T02:49:41.306Z,0.00
2018-12-14T02:50:41.287Z,0.00
2018-12-14T02:51:41.269Z,0.00
2018-12-14T02:52:41.256Z,0.00
2018-12-14T02:53:41.242Z,0.00
2018-12-14T02:54:41.224Z,0.00
2018-12-14T02:55:41.268Z,0.00
2018-12-14T02:56:41.192Z,0.00
2018-12-14T02:57:41.179Z,0.00
2018-12-14T02:58:41.166Z,0.00
2018-12-14T02:59:41.146Z,0.00
2018-12-14T03:00:41.131Z,0.00
2018-12-14T03:01:41.118Z,0.00
2018-12-14T03:02:41.114Z,0.00
2018-12-14T03:03:41.092Z,0.00
2018-12-14T03:04:41.076Z,0.00
2018-12-14T03:05:41.056Z,0.00
2018-12-14T03:06:41.039Z,0.00
2018-12-14T03:07:41.023Z,0.00
2018-12-14T03:08:41.009Z,0.00
2018-12-14T03:09:40.994Z,0.00
2018-12-14T03:10:40.979Z,0.00
2018-12-14T03:11:40.964Z,0.00
2018-12-14T03:12:40.948Z,0.00
2018-12-14T03:13:40.932Z,0.00
2018-12-14T03:14:40.923Z,0.00
2018-12-14T03:15:40.903Z,0.00
2018-12-14T03:16:40.886Z,0.00
2018-12-14T03:17:40.870Z,0.00
2018-12-14T03:18:40.855Z,0.00
2018-12-14T03:19:40.842Z,0.00
2018-12-14T03:20:40.829Z,0.00
2018-12-14T03:21:40.822Z,0.00
2018-12-14T03:22:40.794Z,0.00
2018-12-14T03:23:40.783Z,0.00
2018-12-14T03:24:40.779Z,0.00
2018-12-14T03:25:40.751Z,0.00
2018-12-14T03:26:40.733Z,0.00
2018-12-14T03:27:40.714Z,0.00
2018-12-14T03:28:40.698Z,0.00
2018-12-14T03:29:40.686Z,0.00
2018-12-14T03:30:40.674Z,0.00
2018-12-14T03:31:40.656Z,0.00
2018-12-14T03:32:40.639Z,0.00
2018-12-14T03:33:40.623Z,0.00
2018-12-14T03:34:40.606Z,0.00
2018-12-14T03:35:40.591Z,0.00
2018-12-14T03:36:40.574Z,0.00
2018-12-14T03:37:40.559Z,0.00
2018-12-14T03:38:40.543Z,0.00
2018-12-14T03:39:40.529Z,0.00
2018-12-14T03:40:40.516Z,0.00
2018-12-14T03:41:40.497Z,0.00
2018-12-14T03:42:40.490Z,0.00
2018-12-14T03:43:40.466Z,0.00
2018-12-14T03:44:40.451Z,0.00
2018-12-14T03:45:40.442Z,0.00
2018-12-14T03:46:40.423Z,0.00
2018-12-14T03:47:40.404Z,0.00
2018-12-14T03:48:40.391Z,0.00
2018-12-14T03:49:40.373Z,0.00
2018-12-14T03:50:40.359Z,0.00
2018-12-14T03:51:40.342Z,0.00
2018-12-14T03:52:40.331Z,0.00
2018-12-14T03:53:40.313Z,0.00
2018-12-14T03:54:40.300Z,0.00
2018-12-14T03:55:40.280Z,0.00
2018-12-14T03:56:40.270Z,0.00
2018-12-14T03:57:40.249Z,0.00
2018-12-14T03:58:40.238Z,0.00
2018-12-14T03:59:40.218Z,0.00
2018-12-14T04:00:40.212Z,0.00
2018-12-14T04:01:40.188Z,0.00
2018-12-14T04:02:40.174Z,0.00
2018-12-14T04:03:40.158Z,0.00
2018-12-14T04:04:40.144Z,0.00
2018-12-14T04:05:40.126Z,0.00
2018-12-14T04:06:40.111Z,0.00
2018-12-14T04:07:40.297Z,0.00
2018-12-14T04:08:40.080Z,0.00
2018-12-14T04:09:40.065Z,0.00
2018-12-14T04:10:40.048Z,0.00
2018-12-14T04:11:40.033Z,0.00
2018-12-14T04:12:41.878Z,0.00
2018-12-14T04:13:40.001Z,0.00
2018-12-14T04:14:39.987Z,0.00
2018-12-14T04:15:39.971Z,0.00
2018-12-14T04:16:39.954Z,0.00
2018-12-14T04:17:39.940Z,0.00
2018-12-14T04:18:39.926Z,0.00
2018-12-14T04:19:39.907Z,0.00
2018-12-14T04:20:39.891Z,0.00
2018-12-14T04:21:39.876Z,0.00
2018-12-14T04:22:39.862Z,0.00
2018-12-14T04:23:39.846Z,0.00
2018-12-14T04:24:39.830Z,0.00
2018-12-14T04:25:39.817Z,0.00
2018-12-14T04:26:39.799Z,0.00
2018-12-14T04:27:39.783Z,0.00
2018-12-14T04:28:39.769Z,0.00
2018-12-14T04:29:39.756Z,0.00
2018-12-14T04:30:39.740Z,0.00
2018-12-14T04:31:39.725Z,0.00
2018-12-14T04:32:39.707Z,0.00
2018-12-14T04:33:39.692Z,0.00
2018-12-14T04:34:39.676Z,0.00
2018-12-14T04:35:39.661Z,0.00
2018-12-14T04:36:39.651Z,0.00
2018-12-14T04:37:39.631Z,0.00
2018-12-14T04:38:39.615Z,0.00
2018-12-14T04:39:39.601Z,0.00
2018-12-14T04:40:39.585Z,0.00
2018-12-14T04:41:39.570Z,0.00
2018-12-14T04:42:39.557Z,0.00
2018-12-14T04:43:39.538Z,0.00
2018-12-14T04:44:39.523Z,0.00
2018-12-14T04:45:39.507Z,0.00
2018-12-14T04:46:39.492Z,0.00
2018-12-14T04:47:39.477Z,0.00
2018-12-14T04:48:39.462Z,0.00
2018-12-14T04:49:39.447Z,0.00
2018-12-14T04:50:39.436Z,0.00
2018-12-14T04:51:39.421Z,0.00
2018-12-14T04:52:39.402Z,0.00
2018-12-14T04:53:39.386Z,0.00
2018-12-14T04:54:39.370Z,0.00
2018-12-14T04:55:39.403Z,0.00
2018-12-14T04:56:39.339Z,0.00
2018-12-14T04:57:39.323Z,0.00
2018-12-14T04:58:39.310Z,0.00
2018-12-14T04:59:39.294Z,0.00
2018-12-14T05:00:39.278Z,0.00
2018-12-14T05:01:39.261Z,0.00
2018-12-14T05:02:39.247Z,0.00
2018-12-14T05:03:39.229Z,0.00
2018-12-14T05:04:39.215Z,0.00
2018-12-14T05:05:39.201Z,0.00
2018-12-14T05:06:39.187Z,0.00
2018-12-14T05:07:39.167Z,0.00
2018-12-14T05:08:39.152Z,0.00
2018-12-14T05:09:39.138Z,0.00
2018-12-14T05:10:39.122Z,0.00
2018-12-14T05:11:39.425Z,0.00
2018-12-14T05:12:39.094Z,0.00
2018-12-14T05:13:39.082Z,0.00
2018-12-14T05:14:39.064Z,0.00
2018-12-14T05:15:39.045Z,0.00
2018-12-14T05:16:39.029Z,0.00
2018-12-14T05:17:39.014Z,0.00
2018-12-14T05:18:38.999Z,0.00
2018-12-14T05:19:38.983Z,0.00
2018-12-14T05:20:38.972Z,0.00
2018-12-14T05:21:38.997Z,0.00
2018-12-14T05:22:38.936Z,0.00
2018-12-14T05:23:38.921Z,0.00
2018-12-14T05:24:38.907Z,0.00
2018-12-14T05:25:38.888Z,0.00
2018-12-14T05:26:38.872Z,0.00
2018-12-14T05:27:38.855Z,0.00
2018-12-14T05:28:38.840Z,0.00
2018-12-14T05:29:38.823Z,0.00
2018-12-14T05:30:38.809Z,0.00
2018-12-14T05:31:38.791Z,0.00
2018-12-14T05:32:38.776Z,0.00
2018-12-14T05:33:38.761Z,0.00
2018-12-14T05:34:38.752Z,0.00
2018-12-14T05:35:38.729Z,0.00
2018-12-14T05:36:38.713Z,0.00
2018-12-14T05:37:38.698Z,0.00
2018-12-14T05:38:38.681Z,0.00
2018-12-14T05:39:38.664Z,0.00
2018-12-14T05:40:38.652Z,0.00
2018-12-14T05:41:38.633Z,0.00
2018-12-14T05:42:38.621Z,0.00
2018-12-14T05:43:38.602Z,0.00
2018-12-14T05:44:38.587Z,0.00
2018-12-14T05:45:38.572Z,0.00
2018-12-14T05:46:38.557Z,0.00
2018-12-14T05:47:38.539Z,0.00
2018-12-14T05:48:38.524Z,0.00
2018-12-14T05:49:38.510Z,0.00
2018-12-14T05:50:38.495Z,0.00
2018-12-14T05:51:38.477Z,0.00
2018-12-14T05:52:38.463Z,0.00
2018-12-14T05:53:38.448Z,0.00
2018-12-14T05:55:38.416Z,0.00
2018-12-14T05:56:38.402Z,0.00
2018-12-14T05:57:38.384Z,0.00
2018-12-14T05:58:38.368Z,0.00
2018-12-14T05:59:38.352Z,0.00
2018-12-14T06:00:38.337Z,0.00
2018-12-14T06:01:38.321Z,0.00
2018-12-14T06:02:38.306Z,0.00
2018-12-14T06:03:38.289Z,0.00
2018-12-14T06:04:38.275Z,0.00
2018-12-14T06:05:38.258Z,0.00
2018-12-14T06:06:38.243Z,0.00
2018-12-14T06:07:38.226Z,0.00
2018-12-14T06:08:38.213Z,0.00
2018-12-14T06:09:38.195Z,0.00
2018-12-14T06:10:38.180Z,0.00
2018-12-14T06:11:38.163Z,0.00
2018-12-14T06:12:38.148Z,0.00
2018-12-14T06:13:38.133Z,0.00
2018-12-14T06:14:38.119Z,0.00
2018-12-14T06:15:38.101Z,0.00
2018-12-14T06:16:38.086Z,0.00
2018-12-14T06:17:38.071Z,0.00
2018-12-14T06:18:38.056Z,0.00
2018-12-14T06:19:38.046Z,0.00
2018-12-14T06:20:38.023Z,0.00
2018-12-14T06:21:38.809Z,0.00
2018-12-14T06:22:37.993Z,0.00
2018-12-14T06:23:37.977Z,0.00
2018-12-14T06:24:37.961Z,0.00
2018-12-14T06:25:37.958Z,0.00
2018-12-14T06:26:37.930Z,0.00
2018-12-14T06:27:37.914Z,0.00
2018-12-14T06:28:37.899Z,0.00
2018-12-14T06:29:37.886Z,0.00
2018-12-14T06:30:37.870Z,0.00
2018-12-14T06:31:37.852Z,0.00
2018-12-14T06:32:37.836Z,0.00
2018-12-14T06:33:37.820Z,0.00
2018-12-14T06:34:37.805Z,0.00
2018-12-14T06:35:37.789Z,0.00
2018-12-14T06:36:37.773Z,0.00
2018-12-14T06:37:37.758Z,0.00
2018-12-14T06:38:37.743Z,0.00
2018-12-14T06:39:37.729Z,0.00
2018-12-14T06:40:37.711Z,0.00
2018-12-14T06:41:37.696Z,0.00
2018-12-14T06:42:37.681Z,0.00
2018-12-14T06:43:37.667Z,0.00
2018-12-14T06:44:37.649Z,0.00
2018-12-14T06:45:37.633Z,0.00
2018-12-14T06:46:37.619Z,0.00
2018-12-14T06:47:37.602Z,0.00
2018-12-14T06:48:37.587Z,0.00
2018-12-14T06:49:37.571Z,0.00
2018-12-14T06:50:37.556Z,0.00
2018-12-14T06:51:37.654Z,0.00
2018-12-14T06:52:37.524Z,0.00
2018-12-14T06:53:37.509Z,0.00
2018-12-14T06:54:37.493Z,0.00
2018-12-14T06:55:37.478Z,0.00
2018-12-14T06:56:37.461Z,4.00
2018-12-14T06:57:37.452Z,0.00
2018-12-14T06:58:37.431Z,0.00
2018-12-14T06:59:37.414Z,4.00
2018-12-14T07:00:37.406Z,0.00
2018-12-14T07:01:37.384Z,4.00
2018-12-14T07:02:37.372Z,4.00
2018-12-14T07:03:37.554Z,4.00
2018-12-14T07:04:37.338Z,8.00
2018-12-14T07:05:37.938Z,4.00
2018-12-14T07:06:37.306Z,8.00
2018-12-14T07:07:37.289Z,8.00
2018-12-14T07:08:37.279Z,8.00
2018-12-14T07:09:37.260Z,12.00
2018-12-14T07:10:37.244Z,12.00
2018-12-14T07:11:37.229Z,16.00
2018-12-14T07:12:37.212Z,16.00
2018-12-14T07:13:37.197Z,20.00
2018-12-14T07:14:37.182Z,20.00
2018-12-14T07:15:37.165Z,24.00
2018-12-14T07:16:37.208Z,24.00
2018-12-14T07:17:37.136Z,28.00
2018-12-14T07:18:37.120Z,36.00
2018-12-14T07:19:37.103Z,40.00
2018-12-14T07:20:37.089Z,40.00
2018-12-14T07:21:37.076Z,44.00
2018-12-14T07:22:37.059Z,48.00
2018-12-14T07:23:37.046Z,52.00
2018-12-14T07:24:37.032Z,60.00
2018-12-14T07:25:37.016Z,64.00
2018-12-14T07:26:36.999Z,68.00
2018-12-14T07:27:36.980Z,76.00
2018-12-14T07:28:36.966Z,80.00
2018-12-14T07:29:36.951Z,88.00
2018-12-14T07:30:36.938Z,92.00
2018-12-14T07:31:36.921Z,104.00
2018-12-14T07:32:38.114Z,112.00
2018-12-14T07:33:37.093Z,128.00
2018-12-14T07:34:36.874Z,144.00
2018-12-14T07:35:41.815Z,156.00
2018-12-14T07:36:36.902Z,168.00
2018-12-14T07:37:36.833Z,184.00
2018-12-14T07:38:36.811Z,200.00
2018-12-14T07:39:36.796Z,216.00
2018-12-14T07:40:36.782Z,244.00
2018-12-14T07:41:36.765Z,252.00
2018-12-14T07:42:36.750Z,268.00
2018-12-14T07:43:36.735Z,288.00
2018-12-14T07:44:36.900Z,312.00
2018-12-14T07:45:36.704Z,320.00
2018-12-14T07:46:36.698Z,312.00
2018-12-14T07:47:36.677Z,312.00
2018-12-14T07:48:36.660Z,320.00
2018-12-14T07:49:36.654Z,328.00
2018-12-14T07:50:36.629Z,348.00
2018-12-14T07:51:36.814Z,380.00
2018-12-14T07:52:36.599Z,384.00
2018-12-14T07:53:36.581Z,388.00
2018-12-14T07:54:36.566Z,400.00
2018-12-14T07:55:36.552Z,416.00
2018-12-14T07:56:36.535Z,428.00
2018-12-14T07:57:36.521Z,440.00
2018-12-14T07:58:36.507Z,420.00
2018-12-14T07:59:36.492Z,448.00
2018-12-14T08:00:36.479Z,480.00
2018-12-14T08:01:36.662Z,508.00
2018-12-14T08:02:36.449Z,532.00
2018-12-14T08:03:36.435Z,512.00
2018-12-14T08:04:36.414Z,516.00
2018-12-14T08:05:36.601Z,532.00
2018-12-14T08:06:36.388Z,552.00
2018-12-14T08:07:36.367Z,536.00
2018-12-14T08:08:36.355Z,564.00
2018-12-14T08:09:36.338Z,564.00
2018-12-14T08:10:36.322Z,576.00
2018-12-14T08:11:36.306Z,604.00
2018-12-14T08:12:36.292Z,584.00
2018-12-14T08:13:36.277Z,580.00
2018-12-14T08:14:36.261Z,588.00
2018-12-14T08:15:36.249Z,576.00
2018-12-14T08:16:36.234Z,592.00
2018-12-14T08:17:36.625Z,632.00
2018-12-14T08:18:36.207Z,644.00
2018-12-14T08:19:36.187Z,636.00
2018-12-14T08:20:36.169Z,628.00
2018-12-14T08:21:36.154Z,664.00
2018-12-14T08:22:36.138Z,708.00
2018-12-14T08:23:36.125Z,700.00
2018-12-14T08:24:36.108Z,680.00
2018-12-14T08:25:36.097Z,672.00
2018-12-14T08:26:36.077Z,656.00
2018-12-14T08:27:36.061Z,676.00
2018-12-14T08:28:36.046Z,680.00
2018-12-14T08:29:36.033Z,692.00
2018-12-14T08:30:36.018Z,708.00
2018-12-14T08:31:36.001Z,724.00
2018-12-14T08:32:35.985Z,728.00
2018-12-14T08:33:35.969Z,712.00
2018-12-14T08:34:35.954Z,724.00
2018-12-14T08:35:35.939Z,748.00
2018-12-14T08:36:35.928Z,756.00
2018-12-14T08:37:35.914Z,772.00
2018-12-14T08:38:35.894Z,764.00
2018-12-14T08:39:35.878Z,752.00
2018-12-14T08:40:35.862Z,772.00
2018-12-14T08:41:35.850Z,776.00
2018-12-14T08:42:35.843Z,744.00
2018-12-14T08:43:41.258Z,760.00
2018-12-14T08:44:35.803Z,796.00
2018-12-14T08:45:35.787Z,796.00
2018-12-14T08:46:35.779Z,784.00
2018-12-14T08:47:35.755Z,780.00
2018-12-14T08:48:35.744Z,804.00
2018-12-14T08:49:35.936Z,812.00
2018-12-14T08:50:35.711Z,816.00
2018-12-14T08:51:35.696Z,808.00
2018-12-14T08:52:35.686Z,836.00
2018-12-14T08:53:35.671Z,856.00
2018-12-14T08:54:35.656Z,908.00
2018-12-14T08:55:35.839Z,936.00
2018-12-14T08:56:35.626Z,988.00
2018-12-14T08:57:35.618Z,1052.00
2018-12-14T08:58:35.593Z,1128.00
2018-12-14T08:59:35.582Z,1148.00
2018-12-14T09:00:35.569Z,1036.00
2018-12-14T09:01:35.548Z,1036.00
2018-12-14T09:02:35.536Z,1064.00
2018-12-14T09:03:35.520Z,1060.00
2018-12-14T09:04:35.507Z,1052.00
2018-12-14T09:05:35.492Z,1068.00
2018-12-14T09:06:35.475Z,1116.00
2018-12-14T09:07:35.459Z,1148.00
2018-12-14T09:08:35.446Z,1192.00
2018-12-14T09:09:35.430Z,1256.00
2018-12-14T09:10:35.419Z,1360.00
2018-12-14T09:11:35.404Z,1472.00
2018-12-14T09:12:35.386Z,1512.00
2018-12-14T09:13:35.372Z,1508.00
2018-12-14T09:14:35.366Z,1456.00
2018-12-14T09:15:35.343Z,1464.00
2018-12-14T09:16:35.326Z,1516.00
2018-12-14T09:17:35.312Z,1540.00
2018-12-14T09:18:35.295Z,1536.00
2018-12-14T09:19:35.284Z,1520.00
2018-12-14T09:20:35.267Z,1472.00
2018-12-14T09:21:35.252Z,1476.00
2018-12-14T09:22:35.233Z,1500.00
2018-12-14T09:23:35.219Z,1520.00
2018-12-14T09:24:35.202Z,1500.00
2018-12-14T09:25:35.187Z,1532.00
2018-12-14T09:26:35.173Z,1540.00
2018-12-14T09:27:35.155Z,1536.00
2018-12-14T09:28:35.139Z,1552.00
2018-12-14T09:29:35.124Z,1608.00
2018-12-14T09:30:35.108Z,1664.00
2018-12-14T09:31:35.092Z,1692.00
2018-12-14T09:32:35.076Z,1704.00
2018-12-14T09:33:35.061Z,1688.00
2018-12-14T09:34:35.046Z,1688.00
2018-12-14T09:35:35.030Z,1696.00
2018-12-14T09:36:35.014Z,1712.00
2018-12-14T09:37:34.999Z,1752.00
2018-12-14T09:38:34.985Z,1832.00
2018-12-14T09:39:34.968Z,1852.00
2018-12-14T09:40:34.953Z,1828.00
2018-12-14T09:41:34.945Z,1756.00
2018-12-14T09:42:34.927Z,1700.00
2018-12-14T09:43:34.905Z,1712.00
2018-12-14T09:44:34.896Z,1760.00
2018-12-14T09:45:34.878Z,1772.00
2018-12-14T09:46:37.199Z,1792.00
2018-12-14T09:47:34.845Z,1820.00
2018-12-14T09:48:34.828Z,1864.00
2018-12-14T09:49:34.813Z,1856.00
2018-12-14T09:50:34.798Z,1804.00
2018-12-14T09:51:34.781Z,1756.00
2018-12-14T09:52:34.776Z,1740.00
2018-12-14T09:53:34.750Z,1740.00
2018-12-14T09:54:34.733Z,1772.00
2018-12-14T09:55:34.722Z,1820.00
2018-12-14T09:56:34.701Z,1892.00
2018-12-14T09:57:34.887Z,1916.00
2018-12-14T09:58:34.669Z,1896.00
2018-12-14T09:59:34.656Z,1872.00
2018-12-14T10:00:34.640Z,1940.00
2018-12-14T10:01:34.621Z,2080.00
2018-12-14T10:02:34.606Z,2148.00
2018-12-14T10:03:34.593Z,2116.00
2018-12-14T10:04:34.573Z,2060.00
2018-12-14T10:05:34.561Z,2040.00
2018-12-14T10:06:34.542Z,2064.00
2018-12-14T10:07:34.530Z,2152.00
2018-12-14T10:08:34.513Z,2272.00
2018-12-14T10:09:34.495Z,2312.00
2018-12-14T10:10:34.480Z,2272.00
2018-12-14T10:11:34.476Z,2160.00
2018-12-14T10:12:34.454Z,2132.00
2018-12-14T10:13:34.443Z,2188.00
2018-12-14T10:14:34.418Z,2276.00
2018-12-14T10:15:34.406Z,2348.00
2018-12-14T10:16:34.393Z,2344.00
2018-12-14T10:17:34.385Z,2324.00
2018-12-14T10:18:34.356Z,2320.00
2018-12-14T10:19:34.341Z,2312.00
2018-12-14T10:20:34.326Z,2304.00
2018-12-14T10:21:34.310Z,2376.00
2018-12-14T10:22:34.301Z,2396.00
2018-12-14T10:23:34.279Z,2392.00
2018-12-14T10:24:34.264Z,2416.00
2018-12-14T10:25:34.250Z,2492.00
2018-12-14T10:26:34.233Z,2576.00
2018-12-14T10:27:34.218Z,2612.00
2018-12-14T10:28:34.203Z,2672.00
2018-12-14T10:29:34.187Z,2764.00
2018-12-14T10:30:34.171Z,2928.00
2018-12-14T10:31:34.155Z,2956.00
2018-12-14T10:32:34.143Z,2988.00
2018-12-14T10:33:34.125Z,3084.00
2018-12-14T10:34:34.109Z,3116.00
2018-12-14T10:35:34.097Z,3168.00
2018-12-14T10:36:34.080Z,3164.00
2018-12-14T10:37:34.064Z,3152.00
2018-12-14T10:38:34.048Z,3212.00
2018-12-14T10:39:34.033Z,3028.00
2018-12-14T10:40:34.024Z,2744.00
2018-12-14T10:41:34.002Z,2652.00
2018-12-14T10:42:33.987Z,2780.00
2018-12-14T10:43:33.970Z,2852.00
2018-12-14T10:44:33.957Z,2952.00
2018-12-14T10:45:33.942Z,2988.00
2018-12-14T10:46:33.933Z,2976.00
2018-12-14T10:47:33.914Z,3080.00
2018-12-14T10:48:33.894Z,3100.00
2018-12-14T10:49:33.878Z,3084.00
2018-12-14T10:50:39.212Z,3072.00
2018-12-14T10:51:33.847Z,3096.00
2018-12-14T10:52:33.832Z,3148.00
2018-12-14T10:53:33.817Z,3176.00
2018-12-14T10:54:33.803Z,3204.00
2018-12-14T10:55:33.786Z,3160.00
2018-12-14T10:56:33.771Z,3304.00
2018-12-14T10:57:33.756Z,3412.00
2018-12-14T10:58:33.741Z,3504.00
2018-12-14T10:59:33.726Z,3488.00
2018-12-14T11:00:33.715Z,3388.00
2018-12-14T11:01:33.701Z,3520.00
2018-12-14T11:02:33.685Z,3600.00
2018-12-14T11:03:33.666Z,3732.00
2018-12-14T11:04:33.656Z,3760.00
2018-12-14T11:05:33.633Z,3716.00
2018-12-14T11:06:33.627Z,3688.00
2018-12-14T11:07:33.605Z,3688.00
2018-12-14T11:08:33.790Z,3572.00
2018-12-14T11:09:33.574Z,3532.00
2018-12-14T11:10:33.558Z,3732.00
2018-12-14T11:11:33.545Z,3948.00
2018-12-14T11:12:33.527Z,4092.00
2018-12-14T11:13:33.720Z,4100.00
2018-12-14T11:14:33.500Z,4100.00
2018-12-14T11:15:33.483Z,4136.00
2018-12-14T11:16:33.473Z,4148.00
2018-12-14T11:17:33.453Z,4224.00
2018-12-14T11:18:33.441Z,4336.00
2018-12-14T11:19:33.425Z,4288.00
2018-12-14T11:20:33.410Z,4036.00
2018-12-14T11:21:33.398Z,3876.00
2018-12-14T11:22:33.381Z,3828.00
2018-12-14T11:23:33.369Z,3800.00
2018-12-14T11:24:33.353Z,3768.00
2018-12-14T11:25:33.343Z,3832.00
2018-12-14T11:26:33.524Z,3896.00
2018-12-14T11:27:33.306Z,3904.00
2018-12-14T11:28:33.293Z,3848.00
2018-12-14T11:29:33.280Z,3772.00
2018-12-14T11:30:33.265Z,3800.00
2018-12-14T11:31:33.248Z,3824.00
2018-12-14T11:32:33.235Z,3816.00
2018-12-14T11:33:34.508Z,3872.00
2018-12-14T11:34:33.205Z,3940.00
2018-12-14T11:35:33.192Z,4048.00
2018-12-14T11:36:33.180Z,4076.00
2018-12-14T11:37:33.163Z,4052.00
2018-12-14T11:38:33.150Z,4068.00
2018-12-14T11:39:33.134Z,4056.00
2018-12-14T11:40:33.117Z,4032.00
2018-12-14T11:41:33.108Z,4036.00
2018-12-14T11:42:33.089Z,4068.00
2018-12-14T11:43:33.074Z,4100.00
2018-12-14T11:44:33.059Z,4112.00
2018-12-14T11:45:33.246Z,4040.00
2018-12-14T11:46:33.035Z,4100.00
2018-12-14T11:47:33.020Z,4208.00
2018-12-14T11:48:33.001Z,4200.00
2018-12-14T11:49:32.986Z,3988.00
2018-12-14T11:50:32.972Z,3888.00
2018-12-14T11:51:32.956Z,3788.00
2018-12-14T11:52:32.947Z,3824.00
2018-12-14T11:53:32.927Z,3872.00
2018-12-14T11:54:32.917Z,3824.00
2018-12-14T11:55:32.899Z,3712.00
2018-12-14T11:56:33.086Z,3684.00
2018-12-14T11:57:32.874Z,3644.00
2018-12-14T11:58:32.855Z,3624.00
2018-12-14T11:59:32.840Z,3524.00
2018-12-14T12:00:32.830Z,3428.00
2018-12-14T12:01:32.811Z,3352.00
2018-12-14T12:02:32.803Z,3356.00
2018-12-14T12:03:32.788Z,3396.00
2018-12-14T12:04:32.770Z,3432.00
2018-12-14T12:05:32.752Z,3480.00
2018-12-14T12:06:32.742Z,3516.00
2018-12-14T12:07:32.723Z,3528.00
2018-12-14T12:08:32.717Z,3516.00
2018-12-14T12:09:33.446Z,3504.00
2018-12-14T12:10:32.681Z,3432.00
2018-12-14T12:11:32.665Z,3436.00
2018-12-14T12:12:32.653Z,3556.00
2018-12-14T12:13:32.636Z,3656.00
2018-12-14T12:14:32.623Z,3800.00
2018-12-14T12:15:32.616Z,3992.00
2018-12-14T12:16:32.795Z,4224.00
2018-12-14T12:17:32.578Z,4644.00
2018-12-14T12:18:32.565Z,5068.00
2018-12-14T12:19:32.553Z,5256.00
2018-12-14T12:20:32.536Z,5212.00
2018-12-14T12:21:32.523Z,5204.00
2018-12-14T12:22:32.510Z,5196.00
2018-12-14T12:23:32.491Z,5164.00
2018-12-14T12:24:32.480Z,5112.00
2018-12-14T12:25:32.467Z,4988.00
2018-12-14T12:26:32.452Z,4828.00
2018-12-14T12:27:32.489Z,4692.00
2018-12-14T12:28:32.424Z,4580.00
2018-12-14T12:29:32.405Z,4504.00
2018-12-14T12:30:32.395Z,4488.00
2018-12-14T12:31:32.374Z,4600.00
2018-12-14T12:32:32.364Z,4628.00
2018-12-14T12:33:32.349Z,4484.00
2018-12-14T12:34:32.333Z,4316.00
2018-12-14T12:35:32.317Z,4136.00
2018-12-14T12:36:32.303Z,4056.00
2018-12-14T12:37:32.293Z,4004.00
2018-12-14T12:38:37.910Z,4024.00
2018-12-14T12:39:32.261Z,4044.00
2018-12-14T12:40:32.243Z,4036.00
2018-12-14T12:41:32.231Z,3928.00
2018-12-14T12:42:32.215Z,3796.00
2018-12-14T12:43:32.200Z,3812.00
2018-12-14T12:44:33.723Z,3828.00
2018-12-14T12:45:32.172Z,3784.00
2018-12-14T12:46:32.160Z,3900.00
2018-12-14T12:47:32.346Z,3956.00
2018-12-14T12:48:32.138Z,4080.00
2018-12-14T12:49:32.115Z,4144.00